sensor_id;sensor_type;location;lat;lon;timestamp;P1;durP1;ratioP1;P2;durP2;ratioP2
18544;SDS011;9402;51.460;7.276;2023-02-15T00:00:09;26.10;;;13.80;;
18544;SDS011;9402;51.460;7.276;2023-02-15T00:02:13;26.05;;;14.50;;
18544;SDS011;9402;51.460;7.276;2023-02-15T00:04:16;23.58;;;13.27;;
18544;SDS011;9402;51.460;7.276;2023-02-15T00:06:20;22.35;;;13.98;;
18544;SDS011;9402;51.460;7.276;2023-02-15T00:08:22;32.10;;;15.25;;
18544;SDS011;9402;51.460;7.276;2023-02-15T00:10:25;24.55;;;13.65;;
18544;SDS011;9402;51.460;7.276;2023-02-15T00:12:27;27.15;;;13.63;;
18544;SDS011;9402;51.460;7.276;2023-02-15T00:14:29;24.83;;;13.32;;
18544;SDS011;9402;51.460;7.276;2023-02-15T00:16:31;22.90;;;13.00;;
18544;SDS011;9402;51.460;7.276;2023-02-15T00:18:36;31.25;;;14.02;;
18544;SDS011;9402;51.460;7.276;2023-02-15T00:20:38;24.85;;;12.82;;
18544;SDS011;9402;51.460;7.276;2023-02-15T00:22:40;26.23;;;14.52;;
18544;SDS011;9402;51.460;7.276;2023-02-15T00:24:43;23.90;;;14.70;;
18544;SDS011;9402;51.460;7.276;2023-02-15T00:26:45;26.80;;;13.32;;
18544;SDS011;9402;51.460;7.276;2023-02-15T00:28:49;25.95;;;14.45;;
18544;SDS011;9402;51.460;7.276;2023-02-15T00:30:51;26.17;;;13.90;;
18544;SDS011;9402;51.460;7.276;2023-02-15T00:32:53;23.52;;;13.32;;
18544;SDS011;9402;51.460;7.276;2023-02-15T00:34:57;23.55;;;13.52;;
18544;SDS011;9402;51.460;7.276;2023-02-15T00:36:59;40.03;;;17.55;;
18544;SDS011;9402;51.460;7.276;2023-02-15T00:39:02;26.48;;;14.75;;
18544;SDS011;9402;51.460;7.276;2023-02-15T00:41:06;24.55;;;14.07;;
18544;SDS011;9402;51.460;7.276;2023-02-15T00:43:09;31.02;;;13.55;;
18544;SDS011;9402;51.460;7.276;2023-02-15T00:45:11;30.30;;;15.65;;
18544;SDS011;9402;51.460;7.276;2023-02-15T00:47:14;30.52;;;14.90;;
18544;SDS011;9402;51.460;7.276;2023-02-15T00:49:16;27.50;;;14.40;;
18544;SDS011;9402;51.460;7.276;2023-02-15T00:51:20;26.02;;;14.65;;
18544;SDS011;9402;51.460;7.276;2023-02-15T00:53:22;29.08;;;14.00;;
18544;SDS011;9402;51.460;7.276;2023-02-15T00:55:25;27.50;;;15.30;;
18544;SDS011;9402;51.460;7.276;2023-02-15T00:57:28;26.88;;;14.98;;
18544;SDS011;9402;51.460;7.276;2023-02-15T00:59:30;28.70;;;16.63;;
18544;SDS011;9402;51.460;7.276;2023-02-15T01:01:32;36.22;;;17.15;;
18544;SDS011;9402;51.460;7.276;2023-02-15T01:03:35;37.95;;;19.08;;
18544;SDS011;9402;51.460;7.276;2023-02-15T01:05:37;45.00;;;21.80;;
18544;SDS011;9402;51.460;7.276;2023-02-15T01:07:41;39.17;;;18.92;;
18544;SDS011;9402;51.460;7.276;2023-02-15T01:09:43;41.65;;;20.42;;
18544;SDS011;9402;51.460;7.276;2023-02-15T01:11:45;39.42;;;21.63;;
18544;SDS011;9402;51.460;7.276;2023-02-15T01:13:48;44.05;;;22.65;;
18544;SDS011;9402;51.460;7.276;2023-02-15T01:15:53;40.10;;;21.08;;
18544;SDS011;9402;51.460;7.276;2023-02-15T01:17:56;45.20;;;22.02;;
18544;SDS011;9402;51.460;7.276;2023-02-15T01:19:58;37.67;;;21.48;;
18544;SDS011;9402;51.460;7.276;2023-02-15T01:22:00;42.45;;;21.55;;
18544;SDS011;9402;51.460;7.276;2023-02-15T01:24:05;34.15;;;19.10;;
18544;SDS011;9402;51.460;7.276;2023-02-15T01:26:11;36.30;;;19.23;;
18544;SDS011;9402;51.460;7.276;2023-02-15T01:28:14;35.75;;;18.17;;
18544;SDS011;9402;51.460;7.276;2023-02-15T01:30:16;41.70;;;20.48;;
18544;SDS011;9402;51.460;7.276;2023-02-15T01:32:18;33.15;;;18.65;;
18544;SDS011;9402;51.460;7.276;2023-02-15T01:34:21;32.60;;;18.40;;
18544;SDS011;9402;51.460;7.276;2023-02-15T01:36:23;31.05;;;15.70;;
18544;SDS011;9402;51.460;7.276;2023-02-15T01:38:25;23.35;;;12.95;;
18544;SDS011;9402;51.460;7.276;2023-02-15T01:40:29;23.98;;;14.25;;
18544;SDS011;9402;51.460;7.276;2023-02-15T01:42:32;27.20;;;15.43;;
18544;SDS011;9402;51.460;7.276;2023-02-15T01:44:45;30.17;;;16.00;;
18544;SDS011;9402;51.460;7.276;2023-02-15T01:46:49;30.42;;;15.65;;
18544;SDS011;9402;51.460;7.276;2023-02-15T01:48:53;30.70;;;15.90;;
18544;SDS011;9402;51.460;7.276;2023-02-15T01:50:58;29.05;;;16.33;;
18544;SDS011;9402;51.460;7.276;2023-02-15T01:53:03;26.40;;;15.15;;
18544;SDS011;9402;51.460;7.276;2023-02-15T01:55:09;31.10;;;15.77;;
18544;SDS011;9402;51.460;7.276;2023-02-15T01:57:16;33.10;;;17.05;;
18544;SDS011;9402;51.460;7.276;2023-02-15T01:59:20;30.73;;;17.55;;
18544;SDS011;9402;51.460;7.276;2023-02-15T02:01:24;31.58;;;16.35;;
18544;SDS011;9402;51.460;7.276;2023-02-15T02:03:29;34.20;;;17.52;;
18544;SDS011;9402;51.460;7.276;2023-02-15T02:05:37;31.90;;;15.13;;
18544;SDS011;9402;51.460;7.276;2023-02-15T02:07:42;29.95;;;17.00;;
18544;SDS011;9402;51.460;7.276;2023-02-15T02:09:46;30.90;;;16.73;;
18544;SDS011;9402;51.460;7.276;2023-02-15T02:11:49;35.03;;;17.73;;
18544;SDS011;9402;51.460;7.276;2023-02-15T02:13:53;28.77;;;17.25;;
18544;SDS011;9402;51.460;7.276;2023-02-15T02:15:58;35.63;;;18.27;;
18544;SDS011;9402;51.460;7.276;2023-02-15T02:18:07;32.72;;;16.88;;
18544;SDS011;9402;51.460;7.276;2023-02-15T02:25:32;38.08;;;20.75;;
18544;SDS011;9402;51.460;7.276;2023-02-15T02:27:56;38.47;;;18.00;;
18544;SDS011;9402;51.460;7.276;2023-02-15T02:35:04;27.20;;;15.68;;
18544;SDS011;9402;51.460;7.276;2023-02-15T02:37:12;34.55;;;15.98;;
18544;SDS011;9402;51.460;7.276;2023-02-15T02:39:22;27.50;;;16.05;;
18544;SDS011;9402;51.460;7.276;2023-02-15T02:41:30;28.48;;;15.70;;
18544;SDS011;9402;51.460;7.276;2023-02-15T02:43:40;31.13;;;15.88;;
18544;SDS011;9402;51.460;7.276;2023-02-15T02:45:47;32.88;;;14.88;;
18544;SDS011;9402;51.460;7.276;2023-02-15T02:47:54;31.80;;;16.33;;
18544;SDS011;9402;51.460;7.276;2023-02-15T02:49:59;34.90;;;15.25;;
18544;SDS011;9402;51.460;7.276;2023-02-15T02:52:05;26.83;;;15.77;;
18544;SDS011;9402;51.460;7.276;2023-02-15T02:54:08;29.98;;;15.65;;
18544;SDS011;9402;51.460;7.276;2023-02-15T02:56:13;31.10;;;16.67;;
18544;SDS011;9402;51.460;7.276;2023-02-15T02:58:23;30.05;;;15.38;;
18544;SDS011;9402;51.460;7.276;2023-02-15T03:00:31;26.60;;;15.38;;
18544;SDS011;9402;51.460;7.276;2023-02-15T03:02:39;31.10;;;15.40;;
18544;SDS011;9402;51.460;7.276;2023-02-15T03:04:43;29.63;;;17.00;;
18544;SDS011;9402;51.460;7.276;2023-02-15T03:06:50;29.38;;;15.88;;
18544;SDS011;9402;51.460;7.276;2023-02-15T03:08:56;30.58;;;16.63;;
18544;SDS011;9402;51.460;7.276;2023-02-15T03:11:04;28.42;;;17.08;;
18544;SDS011;9402;51.460;7.276;2023-02-15T03:13:07;28.77;;;16.15;;
18544;SDS011;9402;51.460;7.276;2023-02-15T03:15:10;28.33;;;15.77;;
18544;SDS011;9402;51.460;7.276;2023-02-15T03:17:15;30.45;;;17.02;;
18544;SDS011;9402;51.460;7.276;2023-02-15T03:19:17;29.77;;;15.00;;
18544;SDS011;9402;51.460;7.276;2023-02-15T03:21:23;31.55;;;17.67;;
18544;SDS011;9402;51.460;7.276;2023-02-15T03:23:36;32.85;;;16.35;;
18544;SDS011;9402;51.460;7.276;2023-02-15T03:25:40;31.08;;;16.77;;
18544;SDS011;9402;51.460;7.276;2023-02-15T03:27:44;37.50;;;19.40;;
18544;SDS011;9402;51.460;7.276;2023-02-15T03:29:48;32.75;;;18.65;;
18544;SDS011;9402;51.460;7.276;2023-02-15T03:31:53;36.15;;;19.67;;
18544;SDS011;9402;51.460;7.276;2023-02-15T03:33:57;29.73;;;16.98;;
18544;SDS011;9402;51.460;7.276;2023-02-15T03:36:02;27.73;;;14.98;;
18544;SDS011;9402;51.460;7.276;2023-02-15T03:38:08;28.27;;;15.93;;
18544;SDS011;9402;51.460;7.276;2023-02-15T03:40:15;32.17;;;15.32;;
18544;SDS011;9402;51.460;7.276;2023-02-15T03:42:37;27.60;;;15.15;;
18544;SDS011;9402;51.460;7.276;2023-02-15T03:44:43;27.60;;;16.40;;
18544;SDS011;9402;51.460;7.276;2023-02-15T03:46:51;37.22;;;16.40;;
18544;SDS011;9402;51.460;7.276;2023-02-15T03:48:58;30.27;;;16.55;;
18544;SDS011;9402;51.460;7.276;2023-02-15T03:51:04;32.67;;;15.80;;
18544;SDS011;9402;51.460;7.276;2023-02-15T03:53:26;34.67;;;15.85;;
18544;SDS011;9402;51.460;7.276;2023-02-15T03:55:30;31.42;;;17.60;;
18544;SDS011;9402;51.460;7.276;2023-02-15T03:57:34;32.97;;;17.98;;
18544;SDS011;9402;51.460;7.276;2023-02-15T03:59:55;30.23;;;17.85;;
18544;SDS011;9402;51.460;7.276;2023-02-15T04:02:15;31.13;;;17.13;;
18544;SDS011;9402;51.460;7.276;2023-02-15T04:04:22;29.60;;;17.88;;
18544;SDS011;9402;51.460;7.276;2023-02-15T04:06:26;35.80;;;19.75;;
18544;SDS011;9402;51.460;7.276;2023-02-15T04:08:29;33.70;;;17.75;;
18544;SDS011;9402;51.460;7.276;2023-02-15T04:10:46;34.13;;;17.88;;
18544;SDS011;9402;51.460;7.276;2023-02-15T04:12:56;30.63;;;16.58;;
18544;SDS011;9402;51.460;7.276;2023-02-15T04:14:58;36.17;;;18.80;;
18544;SDS011;9402;51.460;7.276;2023-02-15T04:17:18;33.88;;;17.27;;
18544;SDS011;9402;51.460;7.276;2023-02-15T04:19:20;30.63;;;16.02;;
18544;SDS011;9402;51.460;7.276;2023-02-15T04:21:40;36.55;;;16.48;;
18544;SDS011;9402;51.460;7.276;2023-02-15T04:23:59;35.00;;;16.90;;
18544;SDS011;9402;51.460;7.276;2023-02-15T04:26:20;32.85;;;17.10;;
18544;SDS011;9402;51.460;7.276;2023-02-15T04:28:23;39.10;;;19.65;;
18544;SDS011;9402;51.460;7.276;2023-02-15T04:30:25;33.42;;;18.77;;
18544;SDS011;9402;51.460;7.276;2023-02-15T04:32:27;30.85;;;18.80;;
18544;SDS011;9402;51.460;7.276;2023-02-15T04:34:30;31.58;;;17.48;;
18544;SDS011;9402;51.460;7.276;2023-02-15T04:36:32;33.00;;;18.50;;
18544;SDS011;9402;51.460;7.276;2023-02-15T04:38:34;28.17;;;15.32;;
18544;SDS011;9402;51.460;7.276;2023-02-15T04:40:37;31.90;;;18.30;;
18544;SDS011;9402;51.460;7.276;2023-02-15T04:42:40;35.95;;;18.77;;
18544;SDS011;9402;51.460;7.276;2023-02-15T04:44:43;32.35;;;16.58;;
18544;SDS011;9402;51.460;7.276;2023-02-15T04:46:45;36.72;;;17.65;;
18544;SDS011;9402;51.460;7.276;2023-02-15T04:48:47;36.40;;;18.05;;
18544;SDS011;9402;51.460;7.276;2023-02-15T04:50:49;41.53;;;20.48;;
18544;SDS011;9402;51.460;7.276;2023-02-15T04:52:52;38.85;;;19.00;;
18544;SDS011;9402;51.460;7.276;2023-02-15T04:54:54;36.90;;;19.10;;
18544;SDS011;9402;51.460;7.276;2023-02-15T04:56:56;37.53;;;19.45;;
18544;SDS011;9402;51.460;7.276;2023-02-15T04:59:00;35.35;;;19.25;;
18544;SDS011;9402;51.460;7.276;2023-02-15T05:01:02;35.40;;;19.00;;
18544;SDS011;9402;51.460;7.276;2023-02-15T05:03:05;37.30;;;19.75;;
18544;SDS011;9402;51.460;7.276;2023-02-15T05:05:07;34.40;;;20.10;;
18544;SDS011;9402;51.460;7.276;2023-02-15T05:07:12;41.55;;;22.30;;
18544;SDS011;9402;51.460;7.276;2023-02-15T05:09:15;44.85;;;22.35;;
18544;SDS011;9402;51.460;7.276;2023-02-15T05:11:18;46.38;;;23.27;;
18544;SDS011;9402;51.460;7.276;2023-02-15T05:13:20;36.22;;;19.95;;
18544;SDS011;9402;51.460;7.276;2023-02-15T05:15:24;39.88;;;21.98;;
18544;SDS011;9402;51.460;7.276;2023-02-15T05:17:26;40.90;;;22.08;;
18544;SDS011;9402;51.460;7.276;2023-02-15T05:19:29;43.08;;;21.75;;
18544;SDS011;9402;51.460;7.276;2023-02-15T05:21:31;38.28;;;21.13;;
18544;SDS011;9402;51.460;7.276;2023-02-15T05:23:33;43.30;;;22.63;;
18544;SDS011;9402;51.460;7.276;2023-02-15T05:25:36;38.17;;;21.23;;
18544;SDS011;9402;51.460;7.276;2023-02-15T05:27:55;38.65;;;21.40;;
18544;SDS011;9402;51.460;7.276;2023-02-15T05:30:15;33.50;;;18.52;;
18544;SDS011;9402;51.460;7.276;2023-02-15T05:32:18;34.72;;;20.58;;
18544;SDS011;9402;51.460;7.276;2023-02-15T05:34:21;33.90;;;20.27;;
18544;SDS011;9402;51.460;7.276;2023-02-15T05:36:23;36.70;;;19.05;;
18544;SDS011;9402;51.460;7.276;2023-02-15T05:38:26;37.80;;;20.73;;
18544;SDS011;9402;51.460;7.276;2023-02-15T05:40:28;38.78;;;21.85;;
18544;SDS011;9402;51.460;7.276;2023-02-15T05:42:30;49.38;;;23.33;;
18544;SDS011;9402;51.460;7.276;2023-02-15T05:44:33;38.72;;;22.55;;
18544;SDS011;9402;51.460;7.276;2023-02-15T05:46:35;39.03;;;21.38;;
18544;SDS011;9402;51.460;7.276;2023-02-15T05:48:39;38.28;;;23.05;;
18544;SDS011;9402;51.460;7.276;2023-02-15T05:50:41;35.92;;;19.00;;
18544;SDS011;9402;51.460;7.276;2023-02-15T05:52:43;38.40;;;20.73;;
18544;SDS011;9402;51.460;7.276;2023-02-15T05:54:46;36.55;;;18.90;;
18544;SDS011;9402;51.460;7.276;2023-02-15T05:56:48;36.17;;;19.45;;
18544;SDS011;9402;51.460;7.276;2023-02-15T05:58:52;32.88;;;18.23;;
18544;SDS011;9402;51.460;7.276;2023-02-15T06:00:55;35.05;;;18.35;;
18544;SDS011;9402;51.460;7.276;2023-02-15T06:02:57;36.20;;;19.60;;
18544;SDS011;9402;51.460;7.276;2023-02-15T06:05:01;39.83;;;21.38;;
18544;SDS011;9402;51.460;7.276;2023-02-15T06:07:03;41.08;;;20.83;;
18544;SDS011;9402;51.460;7.276;2023-02-15T06:09:05;42.25;;;20.65;;
18544;SDS011;9402;51.460;7.276;2023-02-15T06:11:08;35.45;;;20.65;;
18544;SDS011;9402;51.460;7.276;2023-02-15T06:13:10;34.08;;;20.10;;
18544;SDS011;9402;51.460;7.276;2023-02-15T06:15:13;32.20;;;20.50;;
18544;SDS011;9402;51.460;7.276;2023-02-15T06:17:15;35.95;;;21.33;;
18544;SDS011;9402;51.460;7.276;2023-02-15T06:19:17;33.15;;;19.50;;
18544;SDS011;9402;51.460;7.276;2023-02-15T06:21:22;35.10;;;19.15;;
18544;SDS011;9402;51.460;7.276;2023-02-15T06:23:24;41.28;;;21.42;;
18544;SDS011;9402;51.460;7.276;2023-02-15T06:25:26;31.52;;;17.80;;
18544;SDS011;9402;51.460;7.276;2023-02-15T06:27:29;33.92;;;18.30;;
18544;SDS011;9402;51.460;7.276;2023-02-15T06:29:31;35.15;;;19.70;;
18544;SDS011;9402;51.460;7.276;2023-02-15T06:31:33;39.63;;;19.85;;
18544;SDS011;9402;51.460;7.276;2023-02-15T06:33:36;36.30;;;19.95;;
18544;SDS011;9402;51.460;7.276;2023-02-15T06:35:38;38.00;;;20.65;;
18544;SDS011;9402;51.460;7.276;2023-02-15T06:37:42;37.45;;;21.70;;
18544;SDS011;9402;51.460;7.276;2023-02-15T06:39:47;42.65;;;23.15;;
18544;SDS011;9402;51.460;7.276;2023-02-15T06:41:49;38.88;;;23.77;;
18544;SDS011;9402;51.460;7.276;2023-02-15T06:43:51;41.55;;;23.08;;
18544;SDS011;9402;51.460;7.276;2023-02-15T06:45:54;37.75;;;20.75;;
18544;SDS011;9402;51.460;7.276;2023-02-15T06:47:56;42.38;;;22.65;;
18544;SDS011;9402;51.460;7.276;2023-02-15T06:49:58;40.75;;;23.77;;
18544;SDS011;9402;51.460;7.276;2023-02-15T06:52:00;46.70;;;24.10;;
18544;SDS011;9402;51.460;7.276;2023-02-15T06:54:05;41.97;;;22.85;;
18544;SDS011;9402;51.460;7.276;2023-02-15T06:56:07;47.03;;;24.92;;
18544;SDS011;9402;51.460;7.276;2023-02-15T06:58:10;48.28;;;24.83;;
18544;SDS011;9402;51.460;7.276;2023-02-15T07:00:14;48.00;;;26.23;;
18544;SDS011;9402;51.460;7.276;2023-02-15T07:02:17;47.78;;;26.15;;
18544;SDS011;9402;51.460;7.276;2023-02-15T07:04:19;52.78;;;28.15;;
18544;SDS011;9402;51.460;7.276;2023-02-15T07:06:22;58.45;;;26.58;;
18544;SDS011;9402;51.460;7.276;2023-02-15T07:08:24;49.72;;;27.02;;
18544;SDS011;9402;51.460;7.276;2023-02-15T07:10:28;51.92;;;27.38;;
18544;SDS011;9402;51.460;7.276;2023-02-15T07:12:30;44.22;;;26.15;;
18544;SDS011;9402;51.460;7.276;2023-02-15T07:14:41;50.80;;;27.15;;
18544;SDS011;9402;51.460;7.276;2023-02-15T07:16:43;43.08;;;24.90;;
18544;SDS011;9402;51.460;7.276;2023-02-15T07:18:45;45.30;;;25.48;;
18544;SDS011;9402;51.460;7.276;2023-02-15T07:20:48;51.70;;;28.17;;
18544;SDS011;9402;51.460;7.276;2023-02-15T07:22:50;51.55;;;25.25;;
18544;SDS011;9402;51.460;7.276;2023-02-15T07:24:52;56.58;;;29.70;;
18544;SDS011;9402;51.460;7.276;2023-02-15T07:26:56;53.28;;;29.10;;
18544;SDS011;9402;51.460;7.276;2023-02-15T07:28:59;54.13;;;27.98;;
18544;SDS011;9402;51.460;7.276;2023-02-15T07:31:01;46.90;;;24.67;;
18544;SDS011;9402;51.460;7.276;2023-02-15T07:33:04;57.47;;;25.98;;
18544;SDS011;9402;51.460;7.276;2023-02-15T07:35:24;37.92;;;23.38;;
18544;SDS011;9402;51.460;7.276;2023-02-15T07:37:27;50.38;;;27.00;;
18544;SDS011;9402;51.460;7.276;2023-02-15T07:39:29;57.25;;;30.25;;
18544;SDS011;9402;51.460;7.276;2023-02-15T07:41:32;53.83;;;27.83;;
18544;SDS011;9402;51.460;7.276;2023-02-15T07:43:37;55.70;;;29.92;;
18544;SDS011;9402;51.460;7.276;2023-02-15T07:45:40;50.42;;;27.65;;
18544;SDS011;9402;51.460;7.276;2023-02-15T07:47:42;42.92;;;23.95;;
18544;SDS011;9402;51.460;7.276;2023-02-15T07:49:45;49.90;;;24.30;;
18544;SDS011;9402;51.460;7.276;2023-02-15T07:51:49;47.15;;;27.85;;
18544;SDS011;9402;51.460;7.276;2023-02-15T07:53:51;47.67;;;25.13;;
18544;SDS011;9402;51.460;7.276;2023-02-15T07:55:54;57.80;;;25.85;;
18544;SDS011;9402;51.460;7.276;2023-02-15T07:57:59;44.15;;;26.05;;
18544;SDS011;9402;51.460;7.276;2023-02-15T08:00:03;56.10;;;27.10;;
18544;SDS011;9402;51.460;7.276;2023-02-15T08:02:08;47.72;;;24.55;;
18544;SDS011;9402;51.460;7.276;2023-02-15T08:04:11;51.65;;;26.45;;
18544;SDS011;9402;51.460;7.276;2023-02-15T08:06:14;52.25;;;28.83;;
18544;SDS011;9402;51.460;7.276;2023-02-15T08:08:16;46.33;;;26.50;;
18544;SDS011;9402;51.460;7.276;2023-02-15T08:10:30;52.75;;;27.10;;
18544;SDS011;9402;51.460;7.276;2023-02-15T08:12:50;47.88;;;26.42;;
18544;SDS011;9402;51.460;7.276;2023-02-15T08:14:52;50.38;;;25.73;;
18544;SDS011;9402;51.460;7.276;2023-02-15T08:16:58;46.15;;;25.58;;
18544;SDS011;9402;51.460;7.276;2023-02-15T08:19:03;47.58;;;25.55;;
18544;SDS011;9402;51.460;7.276;2023-02-15T08:21:07;45.70;;;23.90;;
18544;SDS011;9402;51.460;7.276;2023-02-15T08:23:09;43.85;;;24.60;;
18544;SDS011;9402;51.460;7.276;2023-02-15T08:25:11;42.35;;;24.58;;
18544;SDS011;9402;51.460;7.276;2023-02-15T08:27:14;50.03;;;25.73;;
18544;SDS011;9402;51.460;7.276;2023-02-15T08:29:17;45.03;;;26.75;;
18544;SDS011;9402;51.460;7.276;2023-02-15T08:31:21;50.55;;;26.42;;
18544;SDS011;9402;51.460;7.276;2023-02-15T08:33:25;47.70;;;25.10;;
18544;SDS011;9402;51.460;7.276;2023-02-15T08:41:24;48.00;;;24.00;;
18544;SDS011;9402;51.460;7.276;2023-02-15T08:43:27;44.92;;;23.63;;
18544;SDS011;9402;51.460;7.276;2023-02-15T08:45:29;47.25;;;25.52;;
18544;SDS011;9402;51.460;7.276;2023-02-15T08:47:32;44.08;;;24.65;;
18544;SDS011;9402;51.460;7.276;2023-02-15T08:49:35;47.35;;;24.60;;
18544;SDS011;9402;51.460;7.276;2023-02-15T08:51:38;46.75;;;22.98;;
18544;SDS011;9402;51.460;7.276;2023-02-15T08:53:41;43.10;;;22.05;;
18544;SDS011;9402;51.460;7.276;2023-02-15T08:55:45;40.25;;;23.10;;
18544;SDS011;9402;51.460;7.276;2023-02-15T08:57:47;37.97;;;21.67;;
18544;SDS011;9402;51.460;7.276;2023-02-15T08:59:49;41.50;;;22.90;;
18544;SDS011;9402;51.460;7.276;2023-02-15T09:01:55;45.97;;;23.77;;
18544;SDS011;9402;51.460;7.276;2023-02-15T09:03:58;36.33;;;21.92;;
18544;SDS011;9402;51.460;7.276;2023-02-15T09:06:03;41.55;;;20.02;;
18544;SDS011;9402;51.460;7.276;2023-02-15T09:08:05;35.53;;;20.20;;
18544;SDS011;9402;51.460;7.276;2023-02-15T09:10:08;46.35;;;22.48;;
18544;SDS011;9402;51.460;7.276;2023-02-15T09:12:11;39.88;;;21.48;;
18544;SDS011;9402;51.460;7.276;2023-02-15T09:14:13;37.47;;;20.20;;
18544;SDS011;9402;51.460;7.276;2023-02-15T09:16:17;36.85;;;20.60;;
18544;SDS011;9402;51.460;7.276;2023-02-15T09:18:19;36.25;;;19.48;;
18544;SDS011;9402;51.460;7.276;2023-02-15T09:20:21;32.88;;;20.05;;
18544;SDS011;9402;51.460;7.276;2023-02-15T09:22:25;34.92;;;20.58;;
18544;SDS011;9402;51.460;7.276;2023-02-15T09:24:31;34.20;;;20.63;;
18544;SDS011;9402;51.460;7.276;2023-02-15T09:26:34;34.70;;;19.55;;
18544;SDS011;9402;51.460;7.276;2023-02-15T09:28:37;34.83;;;18.60;;
18544;SDS011;9402;51.460;7.276;2023-02-15T09:30:40;37.92;;;19.73;;
18544;SDS011;9402;51.460;7.276;2023-02-15T09:32:42;40.78;;;19.95;;
18544;SDS011;9402;51.460;7.276;2023-02-15T09:34:46;34.58;;;18.13;;
18544;SDS011;9402;51.460;7.276;2023-02-15T09:36:48;37.45;;;19.05;;
18544;SDS011;9402;51.460;7.276;2023-02-15T09:38:53;34.63;;;18.20;;
18544;SDS011;9402;51.460;7.276;2023-02-15T09:41:02;28.83;;;17.60;;
18544;SDS011;9402;51.460;7.276;2023-02-15T09:43:14;35.63;;;18.90;;
18544;SDS011;9402;51.460;7.276;2023-02-15T09:45:26;31.40;;;17.45;;
18544;SDS011;9402;51.460;7.276;2023-02-15T09:47:54;32.70;;;17.98;;
18544;SDS011;9402;51.460;7.276;2023-02-15T09:50:17;34.53;;;16.77;;
18544;SDS011;9402;51.460;7.276;2023-02-15T09:52:34;28.55;;;15.77;;
18544;SDS011;9402;51.460;7.276;2023-02-15T09:54:48;30.23;;;16.80;;
18544;SDS011;9402;51.460;7.276;2023-02-15T09:57:00;32.55;;;17.00;;
18544;SDS011;9402;51.460;7.276;2023-02-15T09:59:11;39.20;;;18.10;;
18544;SDS011;9402;51.460;7.276;2023-02-15T10:01:18;33.65;;;18.75;;
18544;SDS011;9402;51.460;7.276;2023-02-15T10:03:31;33.27;;;16.83;;
18544;SDS011;9402;51.460;7.276;2023-02-15T10:05:51;32.23;;;17.30;;
18544;SDS011;9402;51.460;7.276;2023-02-15T10:08:09;27.70;;;15.80;;
18544;SDS011;9402;51.460;7.276;2023-02-15T10:10:38;35.23;;;17.73;;
18544;SDS011;9402;51.460;7.276;2023-02-15T10:12:49;31.85;;;15.73;;
18544;SDS011;9402;51.460;7.276;2023-02-15T10:17:23;25.40;;;13.33;;
18544;SDS011;9402;51.460;7.276;2023-02-15T10:19:34;28.43;;;14.63;;
18544;SDS011;9402;51.460;7.276;2023-02-15T10:21:46;21.93;;;12.87;;
18544;SDS011;9402;51.460;7.276;2023-02-15T10:24:02;25.40;;;13.90;;
18544;SDS011;9402;51.460;7.276;2023-02-15T10:26:19;27.57;;;13.33;;
18544;SDS011;9402;51.460;7.276;2023-02-15T10:28:23;22.10;;;12.43;;
18544;SDS011;9402;51.460;7.276;2023-02-15T10:30:31;31.70;;;14.30;;
18544;SDS011;9402;51.460;7.276;2023-02-15T10:32:46;32.40;;;14.47;;
18544;SDS011;9402;51.460;7.276;2023-02-15T10:34:55;32.60;;;13.83;;
18544;SDS011;9402;51.460;7.276;2023-02-15T10:37:16;26.77;;;14.57;;
18544;SDS011;9402;51.460;7.276;2023-02-15T10:39:28;26.53;;;12.87;;
18544;SDS011;9402;51.460;7.276;2023-02-15T10:41:37;26.73;;;13.40;;
18544;SDS011;9402;51.460;7.276;2023-02-15T10:43:49;31.53;;;13.53;;
18544;SDS011;9402;51.460;7.276;2023-02-15T10:46:03;35.33;;;14.70;;
18544;SDS011;9402;51.460;7.276;2023-02-15T10:48:16;22.00;;;11.97;;
18544;SDS011;9402;51.460;7.276;2023-02-15T10:50:26;26.67;;;12.83;;
18544;SDS011;9402;51.460;7.276;2023-02-15T10:52:43;23.73;;;13.10;;
18544;SDS011;9402;51.460;7.276;2023-02-15T10:55:02;21.73;;;11.53;;
18544;SDS011;9402;51.460;7.276;2023-02-15T10:57:12;22.30;;;11.60;;
18544;SDS011;9402;51.460;7.276;2023-02-15T10:59:24;25.87;;;11.97;;
18544;SDS011;9402;51.460;7.276;2023-02-15T11:01:40;26.20;;;11.10;;
18544;SDS011;9402;51.460;7.276;2023-02-15T11:04:00;24.03;;;11.80;;
18544;SDS011;9402;51.460;7.276;2023-02-15T11:06:26;21.70;;;10.60;;
18544;SDS011;9402;51.460;7.276;2023-02-15T11:08:29;23.33;;;11.13;;
18544;SDS011;9402;51.460;7.276;2023-02-15T11:10:35;23.17;;;11.43;;
18544;SDS011;9402;51.460;7.276;2023-02-15T11:12:40;25.17;;;12.07;;
18544;SDS011;9402;51.460;7.276;2023-02-15T11:14:44;26.80;;;13.37;;
18544;SDS011;9402;51.460;7.276;2023-02-15T11:16:50;23.40;;;12.53;;
18544;SDS011;9402;51.460;7.276;2023-02-15T11:18:55;21.77;;;12.00;;
18544;SDS011;9402;51.460;7.276;2023-02-15T11:21:01;24.43;;;12.00;;
18544;SDS011;9402;51.460;7.276;2023-02-15T11:23:07;23.07;;;11.30;;
18544;SDS011;9402;51.460;7.276;2023-02-15T11:25:16;25.30;;;11.40;;
18544;SDS011;9402;51.460;7.276;2023-02-15T11:27:21;18.70;;;11.10;;
18544;SDS011;9402;51.460;7.276;2023-02-15T11:29:26;23.03;;;11.83;;
18544;SDS011;9402;51.460;7.276;2023-02-15T11:31:34;22.93;;;12.00;;
18544;SDS011;9402;51.460;7.276;2023-02-15T11:33:44;20.60;;;11.83;;
18544;SDS011;9402;51.460;7.276;2023-02-15T11:35:50;19.17;;;11.40;;
18544;SDS011;9402;51.460;7.276;2023-02-15T11:37:57;20.27;;;11.27;;
18544;SDS011;9402;51.460;7.276;2023-02-15T11:40:02;21.23;;;10.53;;
18544;SDS011;9402;51.460;7.276;2023-02-15T11:42:14;16.77;;;9.47;;
18544;SDS011;9402;51.460;7.276;2023-02-15T11:44:18;18.73;;;9.97;;
18544;SDS011;9402;51.460;7.276;2023-02-15T11:46:25;20.60;;;10.10;;
18544;SDS011;9402;51.460;7.276;2023-02-15T11:48:28;20.70;;;10.50;;
18544;SDS011;9402;51.460;7.276;2023-02-15T11:50:32;21.83;;;11.47;;
18544;SDS011;9402;51.460;7.276;2023-02-15T11:52:34;23.47;;;10.43;;
18544;SDS011;9402;51.460;7.276;2023-02-15T11:54:37;19.40;;;10.77;;
18544;SDS011;9402;51.460;7.276;2023-02-15T11:56:42;16.53;;;9.47;;
18544;SDS011;9402;51.460;7.276;2023-02-15T11:58:45;22.20;;;10.00;;
18544;SDS011;9402;51.460;7.276;2023-02-15T12:00:51;26.00;;;9.90;;
18544;SDS011;9402;51.460;7.276;2023-02-15T12:02:59;16.80;;;8.80;;
18544;SDS011;9402;51.460;7.276;2023-02-15T12:05:06;20.87;;;10.33;;
18544;SDS011;9402;51.460;7.276;2023-02-15T12:07:13;20.97;;;9.63;;
18544;SDS011;9402;51.460;7.276;2023-02-15T12:09:18;23.10;;;8.90;;
18544;SDS011;9402;51.460;7.276;2023-02-15T12:11:27;14.90;;;8.50;;
18544;SDS011;9402;51.460;7.276;2023-02-15T12:13:33;23.77;;;9.83;;
18544;SDS011;9402;51.460;7.276;2023-02-15T12:15:36;20.53;;;9.20;;
18544;SDS011;9402;51.460;7.276;2023-02-15T12:17:39;19.57;;;9.60;;
18544;SDS011;9402;51.460;7.276;2023-02-15T12:19:44;19.83;;;9.93;;
18544;SDS011;9402;51.460;7.276;2023-02-15T12:21:51;16.27;;;8.73;;
18544;SDS011;9402;51.460;7.276;2023-02-15T12:23:55;15.07;;;8.47;;
18544;SDS011;9402;51.460;7.276;2023-02-15T12:25:58;17.67;;;8.67;;
18544;SDS011;9402;51.460;7.276;2023-02-15T12:28:01;19.40;;;9.47;;
18544;SDS011;9402;51.460;7.276;2023-02-15T12:30:05;26.20;;;8.23;;
18544;SDS011;9402;51.460;7.276;2023-02-15T12:32:09;15.63;;;7.40;;
18544;SDS011;9402;51.460;7.276;2023-02-15T12:34:19;19.30;;;7.20;;
18544;SDS011;9402;51.460;7.276;2023-02-15T12:36:25;17.20;;;7.50;;
18544;SDS011;9402;51.460;7.276;2023-02-15T12:38:31;15.03;;;7.40;;
18544;SDS011;9402;51.460;7.276;2023-02-15T12:40:34;20.00;;;8.30;;
18544;SDS011;9402;51.460;7.276;2023-02-15T12:42:41;16.97;;;8.30;;
18544;SDS011;9402;51.460;7.276;2023-02-15T12:44:52;17.07;;;9.10;;